Time;durP1;ratioP1;P1;durP2;ratioP2;P2;SDS_P1;SDS_P2;PMS_P1;PMS_P2;Temp;Humidity;BMP_temperature;BMP_pressure;BME280_temperature;BME280_humidity;BME280_pressure;Samples;Min_cycle;Max_cycle;Signal;HPM_P1;HPM_P2
2023/07/07 00:00:07;;;;;;;1999.90;999.90;;;13.90;1.00;;;;;;4933194;29;20039;-83
2023/07/07 00:02:33;;;;;;;1999.90;999.90;;;13.90;1.00;;;;;;4917823;29;20051;-83
2023/07/07 00:04:59;;;;;;;1999.90;999.90;;;14.00;1.00;;;;;;4933963;29;20044;-83
2023/07/07 00:07:26;;;;;;;1999.90;999.90;;;13.80;1.00;;;;;;4934860;29;20047;-83
2023/07/07 00:09:52;;;;;;;1999.90;999.90;;;13.80;1.00;;;;;;4932955;29;20463;-83
2023/07/07 00:12:18;;;;;;;1999.90;999.90;;;13.70;1.00;;;;;;4917592;29;20059;-82
2023/07/07 00:14:44;;;;;;;1999.90;999.90;;;13.50;1.00;;;;;;4934796;29;20043;-83
2023/07/07 00:17:11;;;;;;;1999.90;999.90;;;13.40;1.00;;;;;;4932856;29;20059;-83
2023/07/07 00:19:37;;;;;;;1999.90;999.90;;;13.40;1.00;;;;;;4933279;29;20035;-83
2023/07/07 00:22:06;;;;;;;1999.90;999.90;;;13.40;1.00;;;;;;4934418;29;20394;-83
2023/07/07 00:24:33;;;;;;;1999.90;999.90;;;13.30;1.00;;;;;;4934321;29;20031;-82
2023/07/07 00:27:00;;;;;;;1999.90;999.90;;;13.20;4.80;;;;;;4934293;29;20050;-83
2023/07/07 00:29:27;;;;;;;1999.90;999.90;;;13.10;11.80;;;;;;4915790;29;20055;-83
2023/07/07 00:31:53;;;;;;;1999.90;999.90;;;13.10;16.60;;;;;;4939054;29;20028;-83
2023/07/07 00:34:19;;;;;;;1999.90;999.90;;;13.00;10.50;;;;;;4934567;29;20043;-83
2023/07/07 00:36:49;;;;;;;1999.90;999.90;;;13.00;23.90;;;;;;4937101;29;20042;-82
2023/07/07 00:39:15;;;;;;;1999.90;999.90;;;13.00;20.00;;;;;;4933765;29;20560;-83
2023/07/07 00:41:41;;;;;;;1999.90;999.90;;;13.10;10.10;;;;;;4904465;29;20052;-83
2023/07/07 00:44:10;;;;;;;1999.90;999.90;;;13.00;13.90;;;;;;4933290;29;20043;-83
2023/07/07 00:46:37;;;;;;;1999.90;999.90;;;12.90;13.70;;;;;;4934136;29;20039;-83
2023/07/07 00:49:09;;;;;;;1999.90;999.90;;;13.00;9.90;;;;;;4924575;29;20036;-83
2023/07/07 00:52:02;;;;;;;1999.90;999.90;;;12.90;15.50;;;;;;4933643;29;20044;-83
2023/07/07 00:54:35;;;;;;;1999.90;999.90;;;12.80;27.10;;;;;;4924925;29;20055;-84
2023/07/07 00:57:03;;;;;;;1999.90;999.90;;;12.60;40.20;;;;;;4932227;29;20047;-84
2023/07/07 00:59:35;;;;;;;1999.90;999.90;;;12.70;48.80;;;;;;4932448;29;20032;-84
2023/07/07 01:02:09;;;;;;;1999.90;999.90;;;12.80;44.20;;;;;;4933734;29;20035;-83
2023/07/07 01:04:37;;;;;;;1999.90;999.90;;;12.90;34.00;;;;;;4934239;29;20495;-82
2023/07/07 01:07:11;;;;;;;58.90;56.08;;;12.80;30.50;;;;;;4933523;29;20051;-83
2023/07/07 01:09:37;;;;;;;55.05;52.70;;;12.70;42.60;;;;;;4932342;29;20048;-84
2023/07/07 01:12:10;;;;;;;1999.90;999.90;;;12.60;56.60;;;;;;4933485;29;20043;-84
2023/07/07 01:14:36;;;;;;;1999.90;999.90;;;12.50;61.70;;;;;;4933966;29;20044;-84
2023/07/07 01:17:15;;;;;;;1999.90;999.90;;;12.50;73.60;;;;;;4932916;29;20051;-84
2023/07/07 01:20:12;;;;;;;1999.90;999.90;;;12.40;80.20;;;;;;4930381;29;20040;-84
2023/07/07 01:23:05;;;;;;;1999.90;999.90;;;12.30;85.00;;;;;;4932346;29;20040;-84
2023/07/07 01:25:40;;;;;;;1999.90;999.90;;;12.30;92.50;;;;;;4930405;29;20052;-84
2023/07/07 01:28:24;;;;;;;1999.90;999.90;;;12.20;97.00;;;;;;4939405;29;20456;-84
2023/07/07 01:30:58;;;;;;;1999.90;999.90;;;12.20;99.90;;;;;;4932898;29;20050;-84
2023/07/07 01:33:29;;;;;;;1999.90;999.90;;;12.20;99.90;;;;;;4932869;29;20042;-84
2023/07/07 01:35:55;;;;;;;1999.90;999.90;;;12.20;99.90;;;;;;4933939;29;20028;-84
2023/07/07 01:38:32;;;;;;;1999.90;999.90;;;12.10;99.90;;;;;;4934356;29;20031;-84
2023/07/07 01:41:23;;;;;;;1999.90;999.90;;;12.10;99.90;;;;;;4931122;29;20027;-84
2023/07/07 01:43:53;;;;;;;1999.90;999.90;;;12.20;99.90;;;;;;4933226;29;20498;-83
2023/07/07 01:46:19;;;;;;;1999.90;999.90;;;12.20;99.90;;;;;;4932826;29;20428;-83
2023/07/07 01:48:54;;;;;;;6.50;3.20;;;12.20;99.90;;;;;;4934422;29;20036;-83
2023/07/07 01:51:25;;;;;;;4.45;3.05;;;12.20;99.90;;;;;;4933134;29;20113;-84
2023/07/07 01:53:54;;;;;;;2.60;1.80;;;12.20;99.90;;;;;;4934646;29;20521;-83
2023/07/07 01:56:25;;;;;;;1.10;1.00;;;12.10;99.90;;;;;;4934409;29;20040;-83
2023/07/07 01:58:51;;;;;;;310.75;138.35;;;12.10;99.90;;;;;;4936878;29;20499;-84
2023/07/07 02:01:19;;;;;;;6.07;3.47;;;11.90;99.90;;;;;;4917431;29;20036;-83
2023/07/07 02:03:46;;;;;;;947.50;180.45;;;11.90;99.90;;;;;;4936209;29;20051;-83
2023/07/07 02:06:12;;;;;;;1035.10;390.73;;;11.90;99.90;;;;;;4937363;29;20593;-83
2023/07/07 02:08:38;;;;;;;7.13;3.45;;;11.90;99.90;;;;;;4940916;29;20493;-83
2023/07/07 02:11:04;;;;;;;5.10;2.85;;;11.90;99.90;;;;;;4942798;29;20051;-81
2023/07/07 02:13:30;;;;;;;6.90;3.72;;;11.70;99.90;;;;;;4944055;29;20050;-82
2023/07/07 02:15:56;;;;;;;6.97;3.28;;;11.70;99.90;;;;;;4936276;29;20046;-82
2023/07/07 02:18:26;;;;;;;5.38;3.13;;;11.70;99.90;;;;;;4913494;29;20056;-84
2023/07/07 02:20:53;;;;;;;6.13;2.90;;;11.60;99.90;;;;;;4935058;29;20399;-83
2023/07/07 02:23:19;;;;;;;4.90;2.90;;;11.60;99.90;;;;;;4936883;29;20039;-82
2023/07/07 02:25:45;;;;;;;5.60;3.22;;;11.50;99.90;;;;;;4906981;29;20067;-82
2023/07/07 02:28:11;;;;;;;4.75;2.90;;;11.50;99.90;;;;;;4937617;29;20043;-82
2023/07/07 02:30:37;;;;;;;8.35;3.38;;;11.40;99.90;;;;;;4935006;29;20050;-82
2023/07/07 02:33:08;;;;;;;5.25;4.03;;;11.40;99.90;;;;;;4934029;29;20052;-83
2023/07/07 02:35:35;;;;;;;6.95;3.10;;;11.40;99.90;;;;;;4936490;29;20035;-83
2023/07/07 02:38:02;;;;;;;4.88;2.92;;;11.50;99.90;;;;;;4935708;29;20113;-83
2023/07/07 02:40:29;;;;;;;3.70;2.70;;;11.60;99.90;;;;;;4935298;29;20048;-82
2023/07/07 02:42:55;;;;;;;5.75;3.13;;;11.70;99.90;;;;;;4935899;29;20034;-83
2023/07/07 02:45:21;;;;;;;4.35;3.13;;;11.70;99.90;;;;;;4936338;29;20035;-82
2023/07/07 02:47:48;;;;;;;6.10;3.13;;;11.70;99.90;;;;;;4932338;29;20645;-82
2023/07/07 02:50:14;;;;;;;7.10;3.30;;;11.70;99.90;;;;;;4934726;29;20579;-82
2023/07/07 02:52:40;;;;;;;8.88;3.58;;;11.70;99.90;;;;;;4936394;29;20035;-82
2023/07/07 02:55:07;;;;;;;5.15;2.42;;;11.70;99.90;;;;;;4938378;29;20047;-81
2023/07/07 02:57:33;;;;;;;5.05;2.63;;;11.70;99.90;;;;;;4938313;29;20476;-82
2023/07/07 02:59:59;;;;;;;3.65;2.60;;;11.70;99.90;;;;;;4935164;29;20040;-82
2023/07/07 03:02:26;;;;;;;4.07;2.90;;;11.60;99.90;;;;;;4934914;29;20047;-82
2023/07/07 03:04:52;;;;;;;5.13;2.97;;;11.60;99.90;;;;;;4911316;29;20051;-82
2023/07/07 03:07:19;;;;;;;6.05;2.83;;;11.50;99.90;;;;;;4937093;29;20456;-82
2023/07/07 03:09:46;;;;;;;5.03;3.15;;;11.40;99.90;;;;;;4919023;29;20458;-82
2023/07/07 03:12:12;;;;;;;5.82;3.08;;;11.30;99.90;;;;;;4935421;29;20383;-82
2023/07/07 03:14:40;;;;;;;5.70;2.60;;;11.30;99.90;;;;;;4938879;29;20410;-82
2023/07/07 03:17:08;;;;;;;4.85;3.05;;;11.20;99.90;;;;;;4935837;29;20059;-83
2023/07/07 03:19:42;;;;;;;7.38;4.07;;;11.10;99.90;;;;;;4932713;29;20054;-82
2023/07/07 03:22:13;;;;;;;7.18;3.53;;;11.10;99.90;;;;;;4928839;29;20051;-82
2023/07/07 03:25:02;;;;;;;5.85;3.38;;;11.10;99.90;;;;;;4917308;29;20054;-82
2023/07/07 03:27:34;;;;;;;6.60;3.97;;;11.20;99.90;;;;;;4934135;29;20419;-81
2023/07/07 03:30:02;;;;;;;6.07;3.40;;;11.20;99.90;;;;;;4916432;29;20050;-82
2023/07/07 03:32:33;;;;;;;3.92;2.63;;;11.30;99.90;;;;;;4911664;29;20048;-82
2023/07/07 03:35:04;;;;;;;7.20;3.45;;;11.20;99.90;;;;;;4918435;29;20052;-82
2023/07/07 03:37:30;;;;;;;5.65;3.28;;;11.10;99.90;;;;;;4935221;29;20411;-83
2023/07/07 03:39:58;;;;;;;5.28;3.25;;;11.10;99.90;;;;;;4907286;29;20088;-84
2023/07/07 03:42:24;;;;;;;5.22;3.00;;;11.20;99.90;;;;;;4933563;29;20051;-81
2023/07/07 03:44:52;;;;;;;7.05;3.30;;;11.20;99.90;;;;;;4916671;29;20044;-82
2023/07/07 03:47:19;;;;;;;5.97;2.97;;;11.10;99.90;;;;;;4934143;29;20027;-82
2023/07/07 03:49:47;;;;;;;4.40;3.05;;;11.10;99.90;;;;;;4931505;29;20047;-81
2023/07/07 03:52:13;;;;;;;7.35;2.80;;;11.10;99.90;;;;;;4909224;29;20043;-82
2023/07/07 03:54:40;;;;;;;5.55;3.35;;;11.10;99.90;;;;;;4934812;29;20051;-83
2023/07/07 03:57:08;;;;;;;5.47;3.35;;;11.30;99.90;;;;;;4934338;29;20027;-83
2023/07/07 03:59:34;;;;;;;5.10;2.50;;;11.40;99.90;;;;;;4933584;29;20036;-82
2023/07/07 04:02:01;;;;;;;8.00;2.63;;;11.30;99.90;;;;;;4902277;29;20048;-83
2023/07/07 04:04:27;;;;;;;5.57;2.88;;;11.20;99.90;;;;;;4940079;29;20483;-81
2023/07/07 04:06:57;;;;;;;4.75;2.38;;;11.20;99.90;;;;;;4934310;29;20043;-83
2023/07/07 04:09:24;;;;;;;5.50;3.10;;;11.10;99.90;;;;;;4913002;29;20466;-84
2023/07/07 04:11:50;;;;;;;5.60;2.85;;;11.10;99.90;;;;;;4931820;29;20043;-85
2023/07/07 04:14:18;;;;;;;5.13;2.80;;;11.10;99.90;;;;;;4930587;29;20047;-84
2023/07/07 04:16:44;;;;;;;4.15;2.72;;;11.10;99.90;;;;;;4909069;29;20036;-83
2023/07/07 04:19:10;;;;;;;4.32;2.42;;;11.20;99.90;;;;;;4932143;29;20044;-84
2023/07/07 04:21:37;;;;;;;6.28;3.63;;;11.30;99.90;;;;;;4908570;29;20054;-85
2023/07/07 04:24:04;;;;;;;3.80;2.40;;;11.60;99.90;;;;;;4932856;29;20056;-85
2023/07/07 04:26:31;;;;;;;3.30;2.42;;;12.00;99.90;;;;;;4934565;29;20035;-84
2023/07/07 04:28:59;;;;;;;7.10;2.17;;;12.60;99.90;;;;;;4932551;29;20035;-82
2023/07/07 04:31:27;;;;;;;5.60;2.10;;;13.20;88.30;;;;;;4933712;29;20039;-85
2023/07/07 04:33:54;;;;;;;6.00;2.55;;;13.70;35.20;;;;;;4933899;29;20031;-83
2023/07/07 04:36:21;;;;;;;5.22;2.17;;;14.10;1.00;;;;;;4933325;29;20112;-85
2023/07/07 04:38:48;;;;;;;5.63;2.75;;;14.10;1.00;;;;;;4931290;29;20040;-86
2023/07/07 04:41:22;;;;;;;3.08;1.88;;;14.30;1.00;;;;;;4900245;29;20051;-84
2023/07/07 04:43:59;;;;;;;4.90;2.20;;;14.40;1.00;;;;;;4931767;29;20035;-86
2023/07/07 04:46:33;;;;;;;5.85;2.03;;;14.90;1.00;;;;;;4933583;29;20058;-85
2023/07/07 04:49:06;;;;;;;5.28;2.30;;;15.40;1.00;;;;;;4933258;29;20039;-80
2023/07/07 04:51:36;;;;;;;3.42;2.20;;;15.80;1.00;;;;;;4933705;29;20039;-85
2023/07/07 04:54:03;;;;;;;;;;;16.10;1.00;;;;;;4932012;29;20518;-83
2023/07/07 04:56:30;;;;;;;3.60;1.67;;;16.30;99.90;;;;;;4932388;29;19911;-84
2023/07/07 04:58:57;;;;;;;3.83;1.67;;;16.10;1.00;;;;;;4931692;29;20032;-84
2023/07/07 05:01:26;;;;;;;4.43;1.67;;;15.90;1.00;;;;;;4932786;29;20035;-84
2023/07/07 05:03:55;;;;;;;7.35;1.98;;;16.30;1.00;;;;;;4940036;29;20035;-85
2023/07/07 05:06:23;;;;;;;2.70;1.52;;;16.60;99.90;;;;;;4933646;29;20027;-84
2023/07/07 05:08:49;;;;;;;4.50;2.53;;;16.90;99.90;;;;;;4932936;29;20032;-85
2023/07/07 05:11:18;;;;;;;4.93;2.30;;;16.90;99.90;;;;;;4932597;29;20032;-84
2023/07/07 05:13:46;;;;;;;3.83;1.95;;;16.70;99.90;;;;;;4933134;29;20055;-84
2023/07/07 05:16:15;;;;;;;3.65;1.73;;;16.60;99.90;;;;;;4939915;29;20039;-84
2023/07/07 05:18:42;;;;;;;2.90;1.38;;;16.50;99.90;;;;;;4940826;29;20060;-84
2023/07/07 05:21:10;;;;;;;5.40;1.98;;;16.70;99.90;;;;;;4936147;29;20036;-85
2023/07/07 05:23:37;;;;;;;5.93;1.90;;;16.80;99.90;;;;;;4933588;29;20454;-82
2023/07/07 05:26:04;;;;;;;5.47;1.95;;;17.00;99.90;;;;;;4917786;29;20054;-81
2023/07/07 05:28:30;;;;;;;4.90;1.50;;;17.30;99.90;;;;;;4933355;29;20043;-83
2023/07/07 05:30:57;;;;;;;3.95;2.05;;;17.30;99.90;;;;;;4932700;29;20032;-84
2023/07/07 05:33:23;;;;;;;5.05;2.20;;;17.10;99.90;;;;;;4932818;29;20047;-85
2023/07/07 05:35:55;;;;;;;6.85;2.15;;;17.10;99.90;;;;;;4937058;29;20410;-84
2023/07/07 05:38:24;;;;;;;4.47;1.98;;;17.20;99.90;;;;;;4936189;29;20024;-83
2023/07/07 05:40:50;;;;;;;3.38;1.80;;;17.00;99.90;;;;;;4936340;29;20036;-84
2023/07/07 05:43:18;;;;;;;6.20;1.80;;;17.30;99.90;;;;;;4945695;29;20032;-82
2023/07/07 05:45:44;;;;;;;5.45;1.95;;;17.40;99.90;;;;;;4945499;29;20040;-85
2023/07/07 05:48:12;;;;;;;5.25;2.03;;;17.50;99.90;;;;;;4927427;29;20052;-87
2023/07/07 05:50:40;;;;;;;5.50;1.67;;;17.80;99.90;;;;;;4936499;29;20387;-84
2023/07/07 05:53:06;;;;;;;5.72;1.95;;;18.20;99.90;;;;;;4937588;29;20042;-85
2023/07/07 05:55:34;;;;;;;4.40;2.35;;;18.90;99.90;;;;;;4934023;29;20043;-86
2023/07/07 05:58:02;;;;;;;4.90;2.20;;;19.00;99.90;;;;;;4935978;29;20402;-85
2023/07/07 06:00:29;;;;;;;4.85;2.10;;;18.70;99.90;;;;;;4934696;29;20047;-85
2023/07/07 06:02:57;;;;;;;4.10;1.73;;;18.60;99.90;;;;;;4936356;29;20035;-86
2023/07/07 06:05:24;;;;;;;9.38;1.85;;;18.70;99.90;;;;;;4935680;29;20384;-83
2023/07/07 06:07:51;;;;;;;4.40;1.75;;;18.60;99.90;;;;;;4936336;29;20051;-83
2023/07/07 06:10:18;;;;;;;5.15;2.08;;;19.00;99.90;;;;;;4934314;29;20051;-84
2023/07/07 06:12:44;;;;;;;6.38;2.05;;;19.10;99.90;;;;;;4936425;29;20043;-84
2023/07/07 06:15:11;;;;;;;5.45;1.92;;;19.30;99.90;;;;;;4935704;29;20038;-86
2023/07/07 06:17:37;;;;;;;4.45;2.25;;;19.50;99.90;;;;;;4936135;29;20048;-83
2023/07/07 06:20:03;;;;;;;4.32;2.45;;;19.60;99.90;;;;;;4934665;29;20043;-85
2023/07/07 06:22:30;;;;;;;5.28;2.00;;;19.80;99.90;;;;;;4936340;29;20038;-84
2023/07/07 06:24:56;;;;;;;6.93;2.13;;;20.20;99.90;;;;;;4935668;29;20036;-86
2023/07/07 06:27:22;;;;;;;4.28;1.95;;;20.00;99.90;;;;;;4935775;29;20047;-82
2023/07/07 06:29:48;;;;;;;5.85;1.80;;;20.10;99.90;;;;;;4935248;29;20035;-84
2023/07/07 06:32:14;;;;;;;6.30;2.30;;;20.20;99.90;;;;;;4935454;29;20380;-85
2023/07/07 06:34:40;;;;;;;6.45;1.73;;;20.30;99.90;;;;;;4936301;29;20451;-84
2023/07/07 06:37:07;;;;;;;5.15;1.73;;;20.60;99.90;;;;;;4935784;29;20040;-80
2023/07/07 06:39:33;;;;;;;4.10;2.10;;;20.80;99.90;;;;;;4934856;29;20047;-84
2023/07/07 06:42:00;;;;;;;4.93;2.22;;;21.10;99.90;;;;;;4936229;29;20032;-85
2023/07/07 06:44:32;;;;;;;5.35;1.80;;;21.70;99.90;;;;;;4917739;29;20047;-84
2023/07/07 06:46:59;;;;;;;4.68;1.50;;;22.10;99.90;;;;;;4935715;29;20051;-85
2023/07/07 06:49:25;;;;;;;6.18;2.17;;;21.60;99.90;;;;;;4931787;29;20039;-87
2023/07/07 06:51:51;;;;;;;4.32;1.67;;;21.40;99.90;;;;;;4936172;29;20043;-84
2023/07/07 06:54:18;;;;;;;4.38;1.48;;;21.30;99.90;;;;;;4935567;29;20494;-82
2023/07/07 06:56:44;;;;;;;5.65;1.60;;;21.80;99.90;;;;;;4936433;29;20046;-85
2023/07/07 06:59:10;;;;;;;5.40;1.75;;;22.10;99.90;;;;;;4931964;29;20023;-84
2023/07/07 07:01:36;;;;;;;3.42;1.40;;;22.30;99.90;;;;;;4934364;29;20055;-86
2023/07/07 07:04:02;;;;;;;298.60;82.72;;;22.50;99.90;;;;;;4935684;29;20035;-86
2023/07/07 07:06:29;;;;;;;8.93;1.83;;;23.10;99.90;;;;;;4917401;29;20055;-85
2023/07/07 07:08:55;;;;;;;4.35;1.67;;;23.70;99.90;;;;;;4934869;29;20379;-84
2023/07/07 07:11:21;;;;;;;3.85;1.80;;;23.20;99.90;;;;;;4934093;29;20059;-82
2023/07/07 07:13:47;;;;;;;236.70;54.80;;;23.70;99.90;;;;;;4935494;29;20851;-87
2023/07/07 07:16:13;;;;;;;6.40;5.90;;;24.00;97.50;;;;;;4935252;29;20074;-87
2023/07/07 07:18:40;;;;;;;5.32;4.93;;;24.00;97.80;;;;;;4935336;29;20047;-86
2023/07/07 07:21:06;;;;;;;20.90;19.80;;;24.60;99.90;;;;;;4942678;29;20036;-82
2023/07/07 07:23:32;;;;;;;150.73;145.05;;;24.80;93.80;;;;;;4943302;29;20100;-84
2023/07/07 07:25:58;;;;;;;163.50;157.57;;;24.20;98.10;;;;;;4936401;29;20046;-89
2023/07/07 07:28:24;;;;;;;136.52;131.32;;;24.30;99.10;;;;;;4935643;29;20051;-82
2023/07/07 07:30:50;;;;;;;1999.90;999.90;;;24.80;98.50;;;;;;4936197;29;20042;-88
2023/07/07 07:33:20;;;;;;;1999.90;999.90;;;24.70;99.90;;;;;;4933993;29;20040;-85
2023/07/07 07:35:47;;;;;;;1999.90;999.90;;;24.40;92.60;;;;;;4946396;29;20036;-85
2023/07/07 07:38:18;;;;;;;1999.90;999.90;;;24.10;94.80;;;;;;4958206;29;20019;-81
2023/07/07 07:40:44;;;;;;;1999.90;999.90;;;23.60;99.90;;;;;;4957497;29;20042;-82
2023/07/07 07:43:10;;;;;;;1999.90;999.90;;;23.60;99.90;;;;;;4940928;29;20024;-87
2023/07/07 07:45:38;;;;;;;1999.90;999.90;;;23.90;96.80;;;;;;4952026;29;20035;-87
2023/07/07 07:48:04;;;;;;;1999.90;999.90;;;24.30;90.60;;;;;;4943423;29;20378;-87
2023/07/07 07:50:33;;;;;;;1999.90;999.90;;;24.60;87.40;;;;;;4932890;29;20042;-85
2023/07/07 07:52:59;;;;;;;1999.90;999.90;;;24.10;89.20;;;;;;4934155;29;20039;-86
2023/07/07 07:55:26;;;;;;;1999.90;999.90;;;24.30;88.10;;;;;;4928814;29;20047;-85
2023/07/07 07:57:52;;;;;;;1999.90;999.90;;;24.90;71.60;;;;;;4933977;29;20103;-85
2023/07/07 08:00:19;;;;;;;1293.32;572.90;;;24.70;67.50;;;;;;4932359;29;20534;-84
2023/07/07 08:02:48;;;;;;;4.53;1.27;;;24.80;83.80;;;;;;4932578;29;20043;-87
2023/07/07 08:05:14;;;;;;;143.10;37.63;;;24.90;68.60;;;;;;4933292;29;20048;-86
2023/07/07 08:07:41;;;;;;;264.77;58.38;;;24.50;88.60;;;;;;4932633;29;20055;-85
2023/07/07 08:10:08;;;;;;;285.15;82.10;;;25.70;74.70;;;;;;4932470;29;20506;-86
2023/07/07 08:12:34;;;;;;;177.38;36.45;;;26.10;38.20;;;;;;4931658;29;20047;-87
2023/07/07 08:15:00;;;;;;;351.33;222.77;;;26.00;46.70;;;;;;4935928;29;20383;-86
2023/07/07 08:17:27;;;;;;;278.60;80.18;;;25.60;40.90;;;;;;4933802;29;20491;-84
2023/07/07 08:19:54;;;;;;;197.27;68.75;;;25.60;78.90;;;;;;4933978;29;20039;-85
2023/07/07 08:22:23;;;;;;;92.28;13.10;;;26.60;45.00;;;;;;4934402;29;20467;-87
2023/07/07 08:24:52;;;;;;;270.52;76.00;;;26.00;45.60;;;;;;4933056;29;20065;-87
2023/07/07 08:27:20;;;;;;;235.07;53.25;;;25.80;61.00;;;;;;4933462;29;20043;-85
2023/07/07 08:29:46;;;;;;;184.63;44.47;;;26.70;33.40;;;;;;4934116;29;20395;-84
2023/07/07 08:32:15;;;;;;;3.83;1.38;;;25.90;31.00;;;;;;4934217;29;20391;-84
2023/07/07 08:34:41;;;;;;;71.17;9.13;;;25.70;56.80;;;;;;4936248;29;20039;-88
2023/07/07 08:37:07;;;;;;;383.88;85.55;;;26.60;53.10;;;;;;4944791;29;20369;-84
2023/07/07 08:39:33;;;;;;;12.95;2.65;;;26.60;22.20;;;;;;4942586;29;20043;-87
2023/07/07 08:42:05;;;;;;;363.08;30.42;;;26.40;33.40;;;;;;4938163;29;20035;-86
2023/07/07 08:44:35;;;;;;;3.75;1.80;;;26.60;32.50;;;;;;4933862;29;20178;-87
2023/07/07 08:47:15;;;;;;;;;;;26.90;19.30;;;;;;4935016;29;20055;-86
2023/07/07 08:49:53;;;;;;;3.17;1.80;;;26.90;19.00;;;;;;4932902;29;19911;-84
2023/07/07 08:52:37;;;;;;;204.15;19.75;;;26.10;24.90;;;;;;4932865;29;20039;-87
2023/07/07 08:55:31;;;;;;;6.22;2.97;;;26.30;43.60;;;;;;4932206;29;20047;-86
2023/07/07 08:58:25;;;;;;;3.55;2.30;;;27.00;25.60;;;;;;4931503;29;20486;-88
2023/07/07 09:00:57;;;;;;;3.90;2.15;;;27.30;18.20;;;;;;4937916;29;20046;-88
2023/07/07 09:03:38;;;;;;;3.78;1.90;;;27.60;12.30;;;;;;4932929;29;20075;-87
2023/07/07 09:06:37;;;;;;;4.25;1.50;;;28.90;8.60;;;;;;4932673;29;20406;-85
2023/07/07 09:09:35;;;;;;;164.75;18.15;;;28.10;1.00;;;;;;4931654;29;20409;-88
2023/07/07 09:12:07;;;;;;;6.78;2.75;;;27.70;1.00;;;;;;4933307;29;20052;-87
2023/07/07 09:14:34;;;;;;;4.25;2.15;;;28.40;1.00;;;;;;4933316;29;20055;-87
2023/07/07 09:17:25;;;;;;;3.25;2.00;;;28.90;1.00;;;;;;4932760;29;20059;-85
2023/07/07 09:19:53;;;;;;;3.15;1.80;;;28.90;1.00;;;;;;4907799;29;20043;-87
2023/07/07 09:22:26;;;;;;;5.90;2.10;;;29.40;1.00;;;;;;4933179;29;20050;-86
2023/07/07 09:25:06;;;;;;;5.18;2.55;;;28.70;1.00;;;;;;4933076;29;20067;-87
2023/07/07 09:27:39;;;;;;;5.10;2.67;;;28.60;1.00;;;;;;4932381;29;20335;-87
2023/07/07 09:30:24;;;;;;;6.53;2.60;;;28.60;1.00;;;;;;4932661;29;20467;-86
2023/07/07 09:32:50;;;;;;;47.08;5.47;;;29.00;1.00;;;;;;4933581;29;20051;-86
2023/07/07 09:35:19;;;;;;;4.18;1.98;;;28.40;1.00;;;;;;4933957;29;20050;-86
2023/07/07 09:38:04;;;;;;;3.88;2.53;;;28.60;1.00;;;;;;4934552;29;20035;-89
2023/07/07 09:40:45;;;;;;;4.68;3.17;;;29.00;1.00;;;;;;4932477;29;20035;-87
2023/07/07 09:43:47;;;;;;;19.23;12.90;;;30.00;1.00;;;;;;4934446;29;20522;-84
2023/07/07 09:46:32;;;;;;;5.82;3.40;;;28.30;1.00;;;;;;4933526;29;20494;-85
2023/07/07 09:49:10;;;;;;;6.20;2.97;;;28.30;1.00;;;;;;4932536;29;20052;-89
2023/07/07 09:51:49;;;;;;;4.35;2.58;;;29.20;1.00;;;;;;4932205;29;20028;-86
2023/07/07 09:54:16;;;;;;;5.80;3.38;;;29.90;1.00;;;;;;4933038;29;20028;-87
2023/07/07 09:56:56;;;;;;;32.00;6.43;;;30.20;1.00;;;;;;4933772;29;20055;-90
2023/07/07 09:59:28;;;;;;;78.45;40.78;;;29.70;1.00;;;;;;4931698;29;20040;-88
2023/07/07 10:01:56;;;;;;;6.35;3.15;;;29.80;1.00;;;;;;4911833;29;20032;-84
2023/07/07 10:04:24;;;;;;;17.85;4.38;;;30.40;1.00;;;;;;4942692;29;20066;-85
2023/07/07 10:06:56;;;;;;;31.37;4.93;;;30.50;1.00;;;;;;4943887;29;20498;-88
2023/07/07 10:09:22;;;;;;;233.38;24.65;;;29.70;1.00;;;;;;4937481;29;20562;-88
2023/07/07 10:11:50;;;;;;;1500.97;251.85;;;29.90;1.00;;;;;;4942002;29;20032;-85
2023/07/07 10:14:17;;;;;;;1673.18;816.08;;;30.30;1.00;;;;;;4934465;29;20467;-86
2023/07/07 10:17:10;;;;;;;1415.80;229.13;;;30.40;1.00;;;;;;4933438;29;20028;-88
2023/07/07 10:19:45;;;;;;;4.65;2.97;;;29.30;1.00;;;;;;4932135;29;20040;-87
2023/07/07 10:22:14;;;;;;;10.95;4.60;;;29.60;1.00;;;;;;4937194;29;20043;-88
2023/07/07 10:24:41;;;;;;;4.50;3.38;;;30.20;1.00;;;;;;4920580;29;20043;-90
2023/07/07 10:27:14;;;;;;;4.90;3.13;;;29.50;1.00;;;;;;4937255;29;20051;-88
2023/07/07 10:29:42;;;;;;;5.47;3.55;;;30.10;1.00;;;;;;4936433;29;20027;-86
2023/07/07 10:32:17;;;;;;;4.88;3.85;;;30.50;1.00;;;;;;4936883;29;20036;-88
2023/07/07 10:34:51;;;;;;;1521.63;760.85;;;30.30;1.00;;;;;;4937903;29;20039;-89
2023/07/07 10:37:20;;;;;;;4.28;3.88;;;30.10;1.00;;;;;;4945685;29;20036;-87
2023/07/07 10:39:51;;;;;;;8.32;4.35;;;29.60;1.00;;;;;;4919104;29;20386;-87
2023/07/07 10:42:19;;;;;;;6.40;4.78;;;29.40;1.00;;;;;;4937563;29;20029;-84
2023/07/07 10:44:46;;;;;;;53.75;10.88;;;29.40;1.00;;;;;;4933504;29;20054;-88
2023/07/07 10:47:17;;;;;;;7.32;5.07;;;30.00;1.00;;;;;;4937088;29;20036;-88
2023/07/07 10:49:43;;;;;;;11.68;5.45;;;30.40;1.00;;;;;;4935405;29;20028;-88
2023/07/07 10:52:16;;;;;;;7.55;4.82;;;30.40;1.00;;;;;;4936783;29;20023;-86
2023/07/07 10:55:27;;;;;;;26.83;8.35;;;30.10;1.00;;;;;;4936379;29;20027;-88
2023/07/07 10:58:29;;;;;;;6.88;4.45;;;29.90;1.00;;;;;;4879837;29;20045;-92
2023/07/07 11:01:04;;;;;;;7.88;5.30;;;30.30;1.00;;;;;;4935630;29;20058;-86
2023/07/07 11:03:44;;;;;;;7.85;4.68;;;30.60;1.00;;;;;;4936333;29;20048;-89
2023/07/07 11:06:20;;;;;;;216.10;196.23;;;30.10;1.00;;;;;;4935494;29;20058;-83
2023/07/07 11:09:18;;;;;;;632.03;589.53;;;30.00;1.00;;;;;;4934789;29;20043;-86
2023/07/07 11:12:15;;;;;;;1507.50;754.92;;;29.80;1.00;;;;;;4936648;29;20046;-87
2023/07/07 11:15:01;;;;;;;1999.90;999.90;;;29.80;1.00;;;;;;4934816;29;20051;-86
2023/07/07 11:17:41;;;;;;;7.30;6.18;;;29.60;1.00;;;;;;4934544;29;20063;-89
2023/07/07 11:20:36;;;;;;;1999.90;999.90;;;30.00;1.00;;;;;;4932559;29;20056;-84
2023/07/07 11:23:23;;;;;;;6.75;5.72;;;30.20;1.00;;;;;;4927953;29;20051;-84
2023/07/07 11:26:06;;;;;;;10.30;6.63;;;30.30;1.00;;;;;;4935438;29;20040;-90
2023/07/07 11:29:02;;;;;;;10.95;7.63;;;30.60;1.00;;;;;;4935851;29;20498;-92
2023/07/07 11:31:43;;;;;;;1999.90;999.90;;;30.80;1.00;;;;;;4934655;29;20040;-89
2023/07/07 11:34:28;;;;;;;1999.90;999.90;;;30.90;1.00;;;;;;4936299;29;20403;-88
2023/07/07 11:37:01;;;;;;;1999.90;999.90;;;30.90;1.00;;;;;;4935721;29;20047;-90
2023/07/07 11:39:37;;;;;;;1999.90;999.90;;;30.30;1.00;;;;;;4933976;29;20475;-85
2023/07/07 11:42:21;;;;;;;1999.90;999.90;;;29.90;1.00;;;;;;4935821;29;20035;-82
2023/07/07 11:44:57;;;;;;;1999.90;999.90;;;29.80;1.00;;;;;;4933875;29;20083;-87
2023/07/07 11:48:13;;;;;;;1999.90;999.90;;;29.80;1.00;;;;;;4933142;29;20387;-86
2023/07/07 11:50:45;;;;;;;1999.90;999.90;;;29.70;1.00;;;;;;4869132;29;20037;-84
2023/07/07 11:53:51;;;;;;;1999.90;999.90;;;29.90;1.00;;;;;;4929772;29;20419;-86
2023/07/07 11:56:50;;;;;;;1999.90;999.90;;;30.00;1.00;;;;;;4935095;29;20042;-81
2023/07/07 11:59:36;;;;;;;9.37;5.40;;;30.20;1.00;;;;;;4934424;29;20039;-85
2023/07/07 12:02:05;;;;;;;8.95;5.82;;;30.60;1.00;;;;;;4935443;29;20036;-86
2023/07/07 12:04:39;;;;;;;8.57;5.80;;;31.00;1.00;;;;;;4934492;29;20384;-84
2023/07/07 12:07:14;;;;;;;7.90;6.30;;;31.20;1.00;;;;;;4935448;29;20044;-85
2023/07/07 12:09:59;;;;;;;8.18;5.70;;;30.60;1.00;;;;;;4929756;29;20395;-84
2023/07/07 12:12:41;;;;;;;11.65;6.15;;;30.40;1.00;;;;;;4934312;29;20038;-87
2023/07/07 12:15:35;;;;;;;8.23;5.57;;;30.50;1.00;;;;;;4943850;29;20039;-86
2023/07/07 12:18:10;;;;;;;7.53;5.85;;;30.50;1.00;;;;;;4942795;29;20479;-84
2023/07/07 12:20:49;;;;;;;60.92;10.43;;;30.60;1.00;;;;;;4935731;29;20035;-88
2023/07/07 12:23:30;;;;;;;1188.40;183.13;;;30.70;1.00;;;;;;4932599;29;20458;-83
2023/07/07 12:26:15;;;;;;;8.07;5.13;;;31.00;1.00;;;;;;4934078;29;20043;-88
2023/07/07 12:28:47;;;;;;;4.28;2.70;;;30.70;1.00;;;;;;4932335;29;20455;-86
2023/07/07 12:31:16;;;;;;;6.70;3.65;;;30.40;1.00;;;;;;4937282;29;20517;-88
2023/07/07 12:33:42;;;;;;;27.95;26.00;;;30.40;1.00;;;;;;4939816;29;20063;-89
2023/07/07 12:36:13;;;;;;;6.47;2.17;;;30.30;1.00;;;;;;4938782;29;20055;-87
2023/07/07 12:38:41;;;;;;;62.47;11.38;;;30.50;1.00;;;;;;4950080;29;20854;-86
2023/07/07 12:41:14;;;;;;;6.53;3.22;;;30.80;1.00;;;;;;4933329;29;20420;-85
2023/07/07 12:43:43;;;;;;;3.53;2.67;;;31.20;1.00;;;;;;4933580;29;20461;-83
2023/07/07 12:46:19;;;;;;;5.93;2.75;;;31.00;1.00;;;;;;4934510;29;20032;-83
2023/07/07 12:48:46;;;;;;;7.07;4.25;;;30.80;1.00;;;;;;4924943;29;20032;-86
2023/07/07 12:51:12;;;;;;;12.90;7.15;;;30.50;1.00;;;;;;4934428;29;20494;-84
2023/07/07 12:53:45;;;;;;;9.05;6.28;;;30.30;1.00;;;;;;4933312;29;20051;-83
2023/07/07 12:56:17;;;;;;;9.05;5.88;;;30.60;1.00;;;;;;4934018;29;20036;-85